createdAt,value
2023-04-02T00:01:02.842Z,6.63
2023-04-02T00:03:44.977Z,6.77
2023-04-02T00:06:34.467Z,7.47
2023-04-02T00:09:17.223Z,6.55
2023-04-02T00:11:48.601Z,5.63
2023-04-02T00:14:33.469Z,7.03
2023-04-02T00:17:02.196Z,6.03
2023-04-02T00:19:41.500Z,6.70
2023-04-02T00:22:13.639Z,6.60
2023-04-02T00:24:40.205Z,6.68
2023-04-02T00:27:11.886Z,7.35
2023-04-02T00:29:56.559Z,7.37
2023-04-02T00:32:35.226Z,6.85
2023-04-02T00:35:02.605Z,6.43
2023-04-02T00:37:39.404Z,7.00
2023-04-02T00:40:19.502Z,7.80
2023-04-02T00:42:48.114Z,7.40
2023-04-02T00:45:28.734Z,7.13
2023-04-02T00:47:56.998Z,6.80
2023-04-02T00:50:32.777Z,7.15
2023-04-02T00:53:04.478Z,6.72
2023-04-02T00:55:41.746Z,6.57
2023-04-02T00:58:26.685Z,6.75
2023-04-02T01:00:54.109Z,6.95
2023-04-02T01:03:22.860Z,7.03
2023-04-02T01:06:10.841Z,6.28
2023-04-02T01:08:49.520Z,7.27
2023-04-02T01:11:52.778Z,7.57
2023-04-02T01:14:49.199Z,6.25
2023-04-02T01:17:43.228Z,6.63
2023-04-02T01:20:51.868Z,6.72
2023-04-02T01:23:26.217Z,6.67
2023-04-02T01:26:00.630Z,6.22
2023-04-02T01:28:57.177Z,7.15
2023-04-02T01:31:27.544Z,6.80
2023-04-02T01:33:55.098Z,7.10
2023-04-02T01:36:33.345Z,6.47
2023-04-02T01:39:22.614Z,5.05
2023-04-02T01:42:09.389Z,6.97
2023-04-02T01:44:46.734Z,5.25
2023-04-02T01:47:17.258Z,6.32
2023-04-02T01:49:44.699Z,6.50
2023-04-02T01:52:19.479Z,6.18
2023-04-02T01:54:47.776Z,5.97
2023-04-02T01:57:14.516Z,6.68
2023-04-02T01:59:41.221Z,4.45
2023-04-02T02:02:12.602Z,6.30
2023-04-02T02:04:40.209Z,6.43
2023-04-02T02:07:14.370Z,6.47
2023-04-02T02:09:42.273Z,6.03
2023-04-02T02:12:13.755Z,5.68
2023-04-02T02:14:46.282Z,6.03
2023-04-02T02:17:16.502Z,6.07
2023-04-02T02:19:56.008Z,5.80
2023-04-02T02:22:32.651Z,6.13
2023-04-02T02:25:03.030Z,5.95
2023-04-02T02:27:30.079Z,6.37
2023-04-02T02:30:11.194Z,6.00
2023-04-02T02:32:44.604Z,6.00
2023-04-02T02:35:18.440Z,5.88
2023-04-02T02:37:50.639Z,5.20
2023-04-02T02:40:25.018Z,5.43
2023-04-02T02:42:55.608Z,5.45
2023-04-02T02:45:26.960Z,5.32
2023-04-02T02:47:55.576Z,5.32
2023-04-02T02:50:28.158Z,5.53
2023-04-02T02:52:58.672Z,5.20
2023-04-02T02:55:41.917Z,5.28
2023-04-02T02:58:23.147Z,4.72
2023-04-02T03:00:49.963Z,5.60
2023-04-02T03:03:21.974Z,4.32
2023-04-02T03:06:03.062Z,4.37
2023-04-02T03:08:46.525Z,4.90
2023-04-02T03:11:29.200Z,5.88
2023-04-02T03:14:03.449Z,5.50
2023-04-02T03:16:36.589Z,5.07
2023-04-02T03:19:20.493Z,5.27
2023-04-02T03:22:02.965Z,6.10
2023-04-02T03:24:53.888Z,5.32
2023-04-02T03:27:25.002Z,4.80
2023-04-02T03:30:05.779Z,5.85
2023-04-02T03:32:40.355Z,4.80
2023-04-02T03:35:21.670Z,6.38
2023-04-02T03:38:04.726Z,5.35
2023-04-02T03:40:38.426Z,6.07
2023-04-02T03:43:15.274Z,5.70
2023-04-02T03:45:48.349Z,5.30
2023-04-02T03:48:40.377Z,5.75
2023-04-02T03:51:26.522Z,5.60
2023-04-02T03:53:54.083Z,5.18
2023-04-02T03:56:39.652Z,5.43
2023-04-02T03:59:13.847Z,5.53
2023-04-02T04:01:52.149Z,4.63
2023-04-02T04:04:20.939Z,4.80
2023-04-02T04:06:50.703Z,4.32
2023-04-02T04:09:31.746Z,5.05
2023-04-02T04:12:32.549Z,5.97
2023-04-02T04:15:20.346Z,4.60
2023-04-02T04:18:02.139Z,4.55
2023-04-02T04:20:41.878Z,5.20
2023-04-02T04:23:30.705Z,5.03
2023-04-02T04:26:19.914Z,3.73
2023-04-02T04:29:15.556Z,5.07
2023-04-02T04:31:47.409Z,4.18
2023-04-02T04:34:22.890Z,4.20
2023-04-02T04:36:57.584Z,4.32
2023-04-02T04:39:35.567Z,4.70
2023-04-02T04:42:07.110Z,3.75
2023-04-02T04:44:54.898Z,3.78
2023-04-02T04:47:30.965Z,3.88
2023-04-02T04:50:10.418Z,4.03
2023-04-02T04:52:39.439Z,4.13
2023-04-02T04:55:26.813Z,4.05
2023-04-02T04:58:23.161Z,4.18
2023-04-02T05:01:00.489Z,3.80
2023-04-02T05:03:40.049Z,3.55
2023-04-02T05:06:45.535Z,3.10
2023-04-02T05:09:20.425Z,2.17
2023-04-02T05:12:00.160Z,2.50
2023-04-02T05:14:38.615Z,2.78
2023-04-02T05:17:17.130Z,1.92
2023-04-02T05:19:59.674Z,1.60
2023-04-02T05:22:43.399Z,2.17
2023-04-02T05:25:19.539Z,1.98
2023-04-02T05:27:58.781Z,1.40
2023-04-02T05:30:25.223Z,1.40
2023-04-02T05:33:00.451Z,2.10
2023-04-02T05:35:36.587Z,1.75
2023-04-02T05:38:05.701Z,1.77
2023-04-02T05:40:39.927Z,1.55
2023-04-02T05:43:11.025Z,1.77
2023-04-02T05:45:41.218Z,1.47
2023-04-02T05:48:18.566Z,1.73
2023-04-02T05:50:51.572Z,1.23
2023-04-02T05:53:26.928Z,1.50
2023-04-02T05:56:01.097Z,1.42
2023-04-02T05:58:36.587Z,1.63
2023-04-02T06:01:28.174Z,1.45
2023-04-02T06:04:23.906Z,1.60
2023-04-02T06:06:58.240Z,1.05
2023-04-02T06:09:35.973Z,1.60
2023-04-02T06:12:16.473Z,1.30
2023-04-02T06:14:43.165Z,1.67
2023-04-02T06:17:15.745Z,1.50
2023-04-02T06:19:42.891Z,1.00
2023-04-02T06:22:21.405Z,1.75
2023-04-02T06:24:53.924Z,1.33
2023-04-02T06:27:24.468Z,1.90
2023-04-02T06:29:55.641Z,1.50
2023-04-02T06:32:26.949Z,1.83
2023-04-02T06:34:53.988Z,1.85
2023-04-02T06:37:20.914Z,2.37
2023-04-02T06:39:47.906Z,1.83
2023-04-02T06:42:21.840Z,2.33
2023-04-02T06:44:49.135Z,1.90
2023-04-02T06:47:47.057Z,2.17
2023-04-02T06:50:23.323Z,2.20
2023-04-02T06:52:51.768Z,2.17
2023-04-02T06:55:21.299Z,2.33
2023-04-02T06:57:48.636Z,2.17
2023-04-02T07:00:39.228Z,2.17
2023-04-02T07:03:08.680Z,2.50
2023-04-02T07:05:35.611Z,3.03
2023-04-02T07:08:02.237Z,2.30
2023-04-02T07:10:28.672Z,2.75
2023-04-02T07:12:55.314Z,2.67
2023-04-02T07:15:24.014Z,2.10
2023-04-02T07:17:52.163Z,3.85
2023-04-02T07:20:26.902Z,2.70
2023-04-02T07:22:53.811Z,3.15
2023-04-02T07:25:20.554Z,2.75
2023-04-02T07:27:49.709Z,3.10
2023-04-02T07:30:16.538Z,3.40
2023-04-02T07:32:43.121Z,2.40
2023-04-02T07:35:10.429Z,2.90
2023-04-02T07:37:38.342Z,2.78
2023-04-02T07:40:18.338Z,2.60
2023-04-02T07:42:45.380Z,2.90
2023-04-02T07:45:12.458Z,3.60
2023-04-02T07:47:39.051Z,2.88
2023-04-02T07:50:06.546Z,2.60
2023-04-02T07:52:33.017Z,3.10
2023-04-02T07:54:59.563Z,2.92
2023-04-02T07:57:26.058Z,2.95
2023-04-02T07:59:53.322Z,3.10
2023-04-02T08:02:23.787Z,3.08
2023-04-02T08:04:53.709Z,2.90
2023-04-02T08:07:21.977Z,3.35
2023-04-02T08:09:48.444Z,3.00
2023-04-02T08:12:15.857Z,3.33
2023-04-02T08:14:42.308Z,3.22
2023-04-02T08:17:08.799Z,3.00
2023-04-02T08:19:41.531Z,4.03
2023-04-02T08:22:18.397Z,3.42
2023-04-02T08:24:44.932Z,3.28
2023-04-02T08:27:14.543Z,3.60
2023-04-02T08:29:41.271Z,3.83
2023-04-02T08:32:11.495Z,2.65
2023-04-02T08:34:37.954Z,2.78
2023-04-02T08:37:04.418Z,2.88
2023-04-02T08:39:33.108Z,2.60
2023-04-02T08:42:14.645Z,3.53
2023-04-02T08:45:13.758Z,2.47
2023-04-02T08:47:52.117Z,3.00
2023-04-02T08:50:48.294Z,2.08
2023-04-02T08:53:28.864Z,2.55
2023-04-02T08:56:25.251Z,2.37
2023-04-02T08:58:56.376Z,2.17
2023-04-02T09:01:43.822Z,1.92
2023-04-02T09:04:16.714Z,2.08
2023-04-02T09:06:44.000Z,2.25
2023-04-02T09:09:14.110Z,1.77
2023-04-02T09:12:04.066Z,1.33
2023-04-02T09:14:43.640Z,1.85
2023-04-02T09:17:19.157Z,1.40
2023-04-02T09:19:50.762Z,1.73
2023-04-02T09:22:26.459Z,1.90
2023-04-02T09:24:54.454Z,1.35
2023-04-02T09:27:23.808Z,0.95
2023-04-02T09:29:56.927Z,1.02
2023-04-02T09:32:33.969Z,1.02
2023-04-02T09:35:25.335Z,1.00
2023-04-02T09:38:31.454Z,1.25
2023-04-02T09:41:02.220Z,1.20
2023-04-02T09:43:34.504Z,0.90
2023-04-02T09:46:04.116Z,1.08
2023-04-02T09:48:37.856Z,1.57
2023-04-02T09:51:16.390Z,1.38
2023-04-02T09:53:47.841Z,1.10
2023-04-02T09:56:23.339Z,0.85
2023-04-02T09:59:13.304Z,0.77
2023-04-02T10:01:46.651Z,0.70
2023-04-02T10:04:45.046Z,0.65
2023-04-02T10:07:30.614Z,1.00
2023-04-02T10:10:18.211Z,0.75
2023-04-02T10:12:50.974Z,1.05
2023-04-02T10:15:25.744Z,0.87
2023-04-02T10:18:06.953Z,1.00
2023-04-02T10:20:48.629Z,0.93
2023-04-02T10:23:19.069Z,0.82
2023-04-02T10:25:57.060Z,1.02
2023-04-02T10:28:38.298Z,0.97
2023-04-02T10:31:25.655Z,0.88
2023-04-02T10:34:00.802Z,1.10
2023-04-02T10:37:21.004Z,0.90
2023-04-02T10:39:57.710Z,0.77
2023-04-02T10:42:42.034Z,1.13
2023-04-02T10:45:19.832Z,1.17
2023-04-02T10:47:53.836Z,0.90
2023-04-02T10:50:35.945Z,0.77
2023-04-02T10:53:08.104Z,1.58
2023-04-02T10:55:43.269Z,1.10
2023-04-02T10:58:25.135Z,1.08
2023-04-02T11:00:58.496Z,1.75
2023-04-02T11:03:27.949Z,1.48
2023-04-02T11:05:57.753Z,1.33
2023-04-02T11:08:46.540Z,1.10
2023-04-02T11:11:27.312Z,1.70
2023-04-02T11:14:15.496Z,1.33
2023-04-02T11:16:44.756Z,0.98
2023-04-02T11:19:14.609Z,1.17
2023-04-02T11:21:57.329Z,1.70
2023-04-02T11:24:35.018Z,0.90
2023-04-02T11:27:07.806Z,1.30
2023-04-02T11:29:38.236Z,0.80
2023-04-02T11:32:13.778Z,0.95
2023-04-02T11:35:03.046Z,0.70
2023-04-02T11:37:42.669Z,1.00
2023-04-02T11:40:12.270Z,1.10
2023-04-02T11:42:44.600Z,1.17
2023-04-02T11:45:21.067Z,1.10
2023-04-02T11:48:00.688Z,1.23
2023-04-02T11:50:30.102Z,1.35
2023-04-02T11:53:02.123Z,1.30
2023-04-02T11:55:35.974Z,1.65
2023-04-02T11:58:30.536Z,2.00
2023-04-02T12:01:07.947Z,1.50
2023-04-02T12:04:02.243Z,1.20
2023-04-02T12:06:59.927Z,1.17
2023-04-02T12:09:36.751Z,1.42
2023-04-02T12:12:18.018Z,1.80
2023-04-02T12:14:47.719Z,1.20
2023-04-02T12:17:35.071Z,1.50
2023-04-02T12:20:10.467Z,1.50
2023-04-02T12:22:47.459Z,1.30
2023-04-02T12:25:39.888Z,1.33
2023-04-02T12:28:09.464Z,1.10
2023-04-02T12:30:37.387Z,1.13
2023-04-02T12:33:16.467Z,1.25
2023-04-02T12:35:44.094Z,1.20
2023-04-02T12:38:24.675Z,1.45
2023-04-02T12:40:53.089Z,1.30
2023-04-02T12:43:25.005Z,1.00
2023-04-02T12:45:58.002Z,1.00
2023-04-02T12:48:26.141Z,1.63
2023-04-02T12:50:53.893Z,1.40
2023-04-02T12:53:22.910Z,1.20
2023-04-02T12:55:52.143Z,1.33
2023-04-02T12:58:28.108Z,1.38
2023-04-02T13:01:15.910Z,1.45
2023-04-02T13:03:42.523Z,1.10
2023-04-02T13:06:24.450Z,1.70
2023-04-02T13:08:51.326Z,1.95
2023-04-02T13:11:18.066Z,1.10
2023-04-02T13:13:47.325Z,1.20
2023-04-02T13:16:19.907Z,1.52
2023-04-02T13:18:48.726Z,1.40
2023-04-02T13:21:21.352Z,1.35
2023-04-02T13:23:47.916Z,0.80
2023-04-02T13:26:18.968Z,1.15
2023-04-02T13:29:14.805Z,1.17
2023-04-02T13:31:41.529Z,0.80
2023-04-02T13:34:08.048Z,1.00
2023-04-02T13:36:34.874Z,1.20
2023-04-02T13:39:01.362Z,0.90
2023-04-02T13:41:31.430Z,0.98
2023-04-02T13:44:01.430Z,1.07
2023-04-02T13:46:34.209Z,1.00
2023-04-02T13:49:01.184Z,1.02
2023-04-02T13:51:36.312Z,0.90
2023-04-02T13:54:05.084Z,1.00
2023-04-02T13:56:32.239Z,1.23
2023-04-02T13:58:58.949Z,1.02
2023-04-02T14:01:26.113Z,1.20
2023-04-02T14:03:54.934Z,0.90
2023-04-02T14:06:45.734Z,0.80
2023-04-02T14:09:30.507Z,0.67
2023-04-02T14:12:22.662Z,1.08
2023-04-02T14:15:17.114Z,0.90
2023-04-02T14:17:59.974Z,1.25
2023-04-02T14:20:38.433Z,1.05
2023-04-02T14:23:47.573Z,0.90
2023-04-02T14:26:39.614Z,1.25
2023-04-02T14:29:17.251Z,0.90
2023-04-02T14:31:49.617Z,1.35
2023-04-02T14:34:34.643Z,1.13
2023-04-02T14:37:18.368Z,1.10
2023-04-02T14:39:58.252Z,1.08
2023-04-02T14:42:35.083Z,1.10
2023-04-02T14:45:22.760Z,1.05
2023-04-02T14:48:00.749Z,1.00
2023-04-02T14:50:35.230Z,0.80
2023-04-02T14:53:12.373Z,1.25
2023-04-02T14:55:43.667Z,1.00
2023-04-02T14:58:21.138Z,0.70
2023-04-02T15:01:01.929Z,0.80
2023-04-02T15:03:41.141Z,0.60
2023-04-02T15:06:14.942Z,0.73
2023-04-02T15:08:55.184Z,0.68
2023-04-02T15:11:41.101Z,0.52
2023-04-02T15:14:19.294Z,1.25
2023-04-02T15:16:45.894Z,1.07
2023-04-02T15:19:15.557Z,0.70
2023-04-02T15:22:06.231Z,0.80
2023-04-02T15:25:04.718Z,0.85
2023-04-02T15:27:49.443Z,0.63
2023-04-02T15:30:25.161Z,0.70
2023-04-02T15:32:55.137Z,0.82
2023-04-02T15:35:55.120Z,0.93
2023-04-02T15:38:31.000Z,0.63
2023-04-02T15:41:09.502Z,0.80
2023-04-02T15:43:56.629Z,0.70
2023-04-02T15:47:06.510Z,0.82
2023-04-02T15:49:46.750Z,1.10
2023-04-02T15:52:32.279Z,0.73
2023-04-02T15:55:34.544Z,0.82
2023-04-02T15:58:37.993Z,0.60
2023-04-02T16:01:41.903Z,0.98
2023-04-02T16:04:33.103Z,0.85
2023-04-02T16:07:27.157Z,1.02
2023-04-02T16:10:15.513Z,0.80
2023-04-02T16:12:42.376Z,0.60
2023-04-02T16:15:34.609Z,0.90
2023-04-02T16:18:07.569Z,0.75
2023-04-02T16:20:41.712Z,1.02
2023-04-02T16:23:14.258Z,1.00
2023-04-02T16:26:18.480Z,0.60
2023-04-02T16:29:06.924Z,0.90
2023-04-02T16:32:05.596Z,0.90
2023-04-02T16:35:32.560Z,1.13
2023-04-02T16:38:30.544Z,1.10
2023-04-02T16:41:13.008Z,0.90
2023-04-02T16:43:54.093Z,1.05
2023-04-02T16:46:39.587Z,0.98
2023-04-02T16:49:30.614Z,0.90
2023-04-02T16:52:28.209Z,0.82
2023-04-02T16:55:24.482Z,1.10
2023-04-02T16:58:22.982Z,1.13
2023-04-02T17:00:52.578Z,1.08
2023-04-02T17:03:43.493Z,0.68
2023-04-02T17:06:25.188Z,0.80
2023-04-02T17:09:08.146Z,0.80
2023-04-02T17:11:47.680Z,1.02
2023-04-02T17:14:22.833Z,0.70
2023-04-02T17:16:52.574Z,0.80
2023-04-02T17:19:20.790Z,0.90
2023-04-02T17:21:50.274Z,1.03
2023-04-02T17:24:35.430Z,0.88
2023-04-02T17:27:16.893Z,0.93
2023-04-02T17:29:47.279Z,0.90
2023-04-02T17:32:22.718Z,1.35
2023-04-02T17:34:49.252Z,0.67
2023-04-02T17:37:26.246Z,0.73
2023-04-02T17:40:09.675Z,1.23
2023-04-02T17:43:02.457Z,1.20
2023-04-02T17:45:37.617Z,0.88
2023-04-02T17:48:28.704Z,0.80
2023-04-02T17:51:09.590Z,1.02
2023-04-02T17:54:01.142Z,1.20
2023-04-02T17:56:43.987Z,0.95
2023-04-02T17:59:32.268Z,0.95
2023-04-02T18:02:19.813Z,1.23
2023-04-02T18:05:07.697Z,1.58
2023-04-02T18:07:40.300Z,1.10
2023-04-02T18:10:48.423Z,0.73
2023-04-02T18:13:36.717Z,1.05
2023-04-02T18:16:24.433Z,0.80
2023-04-02T18:19:09.192Z,1.10
2023-04-02T18:22:02.175Z,1.30
2023-04-02T18:24:41.263Z,0.98
2023-04-02T18:27:42.277Z,1.33
2023-04-02T18:30:24.050Z,1.00
2023-04-02T18:33:09.137Z,1.40
2023-04-02T18:36:13.476Z,1.17
2023-04-02T18:38:58.988Z,1.30
2023-04-02T18:41:43.093Z,1.10
2023-04-02T18:44:30.953Z,1.40
2023-04-02T18:47:10.422Z,1.08
2023-04-02T18:49:51.825Z,1.13
2023-04-02T18:52:18.752Z,1.25
2023-04-02T18:54:49.349Z,0.90
2023-04-02T18:57:27.973Z,1.50
2023-04-02T19:00:01.929Z,1.30
2023-04-02T19:02:42.902Z,1.67
2023-04-02T19:05:51.713Z,1.00
2023-04-02T19:08:28.130Z,0.70
2023-04-02T19:10:59.374Z,0.57
2023-04-02T19:13:26.041Z,0.95
2023-04-02T19:16:35.520Z,0.82
2023-04-02T19:19:21.864Z,0.85
2023-04-02T19:22:08.638Z,0.68
2023-04-02T19:33:59.315Z,0.90
2023-04-02T19:36:48.304Z,0.95
2023-04-02T19:39:57.851Z,1.05
2023-04-02T19:42:43.904Z,0.80
2023-04-02T19:45:35.616Z,1.05
2023-04-02T19:48:11.298Z,1.05
2023-04-02T19:50:38.076Z,0.70
2023-04-02T19:55:31.571Z,1.33
2023-04-02T19:58:12.618Z,1.60
2023-04-02T20:01:22.337Z,1.00
2023-04-02T20:03:49.395Z,1.02
2023-04-02T20:06:17.868Z,1.30
2023-04-02T20:08:45.420Z,1.20
2023-04-02T20:11:15.517Z,0.90
2023-04-02T20:13:42.068Z,0.90
2023-04-02T20:16:08.578Z,0.88
2023-04-02T20:18:37.131Z,1.33
2023-04-02T20:21:05.693Z,1.00
2023-04-02T20:23:33.419Z,0.75
2023-04-02T20:26:00.505Z,1.17
2023-04-02T20:28:29.616Z,1.00
2023-04-02T20:31:15.161Z,0.77
2023-04-02T20:33:42.539Z,0.90
2023-04-02T20:36:12.883Z,0.85
2023-04-02T20:38:53.328Z,0.68
2023-04-02T20:41:33.206Z,0.93
2023-04-02T20:44:05.378Z,0.75
2023-04-02T20:46:36.974Z,0.50
2023-04-02T20:49:04.845Z,0.90
2023-04-02T20:51:37.758Z,0.77
2023-04-02T20:54:05.295Z,0.65
2023-04-02T20:56:36.865Z,0.60
2023-04-02T21:01:50.554Z,0.50
2023-04-02T21:04:17.425Z,0.35
2023-04-02T21:06:48.002Z,0.70
2023-04-02T21:09:38.515Z,0.70
2023-04-02T21:12:07.690Z,0.70
2023-04-02T21:14:38.771Z,0.82
2023-04-02T21:17:07.280Z,0.60
2023-04-02T21:19:36.029Z,0.57
2023-04-02T21:22:05.084Z,0.50
2023-04-02T21:24:31.720Z,0.40
2023-04-02T21:26:58.334Z,0.70
2023-04-02T21:29:28.064Z,0.63
2023-04-02T21:31:54.795Z,0.70
2023-04-02T21:34:21.404Z,0.57
2023-04-02T21:36:48.460Z,0.53
2023-04-02T21:39:21.225Z,0.60
2023-04-02T21:41:53.071Z,0.63
2023-04-02T21:44:21.601Z,0.43
2023-04-02T21:46:49.366Z,0.63
2023-04-02T21:49:20.099Z,0.30
2023-04-02T21:51:47.408Z,0.68
2023-04-02T21:54:14.096Z,0.75
2023-04-02T21:56:43.222Z,0.43
2023-04-02T21:59:12.942Z,0.50
2023-04-02T22:01:42.342Z,0.50
2023-04-02T22:04:15.649Z,0.52
2023-04-02T22:06:43.638Z,0.52
2023-04-02T22:09:16.926Z,0.40
2023-04-02T22:11:48.798Z,0.68
2023-04-02T22:14:15.831Z,0.70
2023-04-02T22:16:43.127Z,0.40
2023-04-02T22:19:13.733Z,0.57
2023-04-02T22:21:41.400Z,0.50
2023-04-02T22:24:11.000Z,0.40
2023-04-02T22:26:38.222Z,0.50
2023-04-02T22:29:05.046Z,0.43
2023-04-02T22:31:33.500Z,0.50
2023-04-02T22:34:01.130Z,0.47
2023-04-02T22:36:29.163Z,0.95
2023-04-02T22:38:57.064Z,0.90
2023-04-02T22:41:27.377Z,0.47
2023-04-02T22:43:56.385Z,0.63
2023-04-02T22:46:23.551Z,0.50
2023-04-02T22:48:50.475Z,0.60
2023-04-02T22:51:20.002Z,0.50
2023-04-02T22:53:48.812Z,0.70
2023-04-02T22:56:18.414Z,1.10
2023-04-02T22:58:46.007Z,0.50
2023-04-02T23:01:21.388Z,0.70
2023-04-02T23:03:48.358Z,0.60
2023-04-02T23:06:18.368Z,0.50
2023-04-02T23:08:46.073Z,0.50
2023-04-02T23:11:22.637Z,0.52
2023-04-02T23:13:51.365Z,0.57
2023-04-02T23:16:18.556Z,0.60
2023-04-02T23:18:48.672Z,0.40
2023-04-02T23:21:16.740Z,0.50
2023-04-02T23:23:43.318Z,0.52
2023-04-02T23:26:11.298Z,0.65
2023-04-02T23:28:39.765Z,0.50
2023-04-02T23:31:08.682Z,0.50
2023-04-02T23:33:35.200Z,0.57
2023-04-02T23:36:09.617Z,0.43
2023-04-02T23:38:36.181Z,0.63
2023-04-02T23:41:02.839Z,0.60
2023-04-02T23:43:29.351Z,0.82
2023-04-02T23:45:55.874Z,0.70
2023-04-02T23:48:22.446Z,0.50
2023-04-02T23:50:48.983Z,0.52
2023-04-02T23:53:17.473Z,0.60
2023-04-02T23:55:44.120Z,0.40
2023-04-02T23:58:10.635Z,0.50
